createdAt,value
2023-01-19T00:00:28.678Z,1.80
2023-01-19T00:02:55.369Z,1.80
2023-01-19T00:05:22.133Z,1.90
2023-01-19T00:07:48.776Z,1.80
2023-01-19T00:10:15.591Z,1.70
2023-01-19T00:16:11.331Z,1.80
2023-01-19T00:18:37.941Z,1.80
2023-01-19T00:21:04.604Z,1.70
2023-01-19T00:23:58.244Z,1.70
2023-01-19T00:26:24.931Z,1.70
2023-01-19T00:28:52.947Z,1.70
2023-01-19T00:31:21.845Z,1.70
2023-01-19T00:33:49.412Z,1.70
2023-01-19T00:36:16.666Z,1.70
2023-01-19T00:38:43.372Z,1.70
2023-01-19T00:41:10.106Z,1.70
2023-01-19T00:43:36.720Z,1.60
2023-01-19T00:46:03.329Z,1.60
2023-01-19T00:48:30.796Z,1.60
2023-01-19T00:50:57.545Z,1.70
2023-01-19T00:53:24.227Z,1.60
2023-01-19T00:55:50.850Z,1.60
2023-01-19T00:58:17.481Z,1.50
2023-01-19T01:00:44.801Z,1.50
2023-01-19T01:03:11.571Z,1.50
2023-01-19T01:05:40.207Z,1.50
2023-01-19T01:08:06.819Z,1.50
2023-01-19T01:10:33.503Z,1.50
2023-01-19T01:13:00.174Z,1.40
2023-01-19T01:15:52.958Z,1.40
2023-01-19T01:18:20.003Z,1.40
2023-01-19T01:20:46.643Z,1.40
2023-01-19T01:23:13.735Z,1.40
2023-01-19T01:25:40.387Z,1.40
2023-01-19T01:28:08.714Z,1.40
2023-01-19T01:30:39.899Z,1.50
2023-01-19T01:33:07.107Z,1.50
2023-01-19T01:35:34.033Z,1.50
2023-01-19T01:38:00.967Z,1.40
2023-01-19T01:40:28.575Z,1.40
2023-01-19T01:42:55.233Z,1.40
2023-01-19T01:45:21.853Z,1.40
2023-01-19T01:47:53.466Z,1.40
2023-01-19T01:50:29.698Z,1.40
2023-01-19T01:53:07.633Z,1.30
2023-01-19T01:55:36.790Z,1.30
2023-01-19T01:58:04.949Z,1.30
2023-01-19T02:00:51.807Z,1.40
2023-01-19T02:03:18.696Z,1.30
2023-01-19T02:05:45.732Z,1.30
2023-01-19T02:08:37.372Z,1.20
2023-01-19T02:11:23.122Z,1.20
2023-01-19T02:13:49.850Z,1.30
2023-01-19T02:16:17.010Z,1.20
2023-01-19T02:18:45.266Z,1.20
2023-01-19T02:21:12.037Z,1.30
2023-01-19T02:23:43.903Z,1.20
2023-01-19T02:26:12.554Z,1.20
2023-01-19T02:28:41.493Z,1.20
2023-01-19T02:31:08.313Z,1.10
2023-01-19T02:33:34.972Z,1.10
2023-01-19T02:36:10.676Z,1.20
2023-01-19T02:38:38.479Z,1.10
2023-01-19T02:41:06.287Z,1.10
2023-01-19T02:43:33.427Z,1.10
2023-01-19T02:46:00.216Z,1.10
2023-01-19T02:48:27.155Z,1.10
2023-01-19T02:50:55.994Z,1.10
2023-01-19T02:53:37.431Z,1.10
2023-01-19T02:56:39.828Z,1.10
2023-01-19T02:59:11.660Z,1.10
2023-01-19T03:01:38.739Z,1.10
2023-01-19T03:04:14.580Z,1.10
2023-01-19T03:06:50.017Z,1.10
2023-01-19T03:09:25.794Z,1.10
2023-01-19T03:11:56.117Z,1.10
2023-01-19T03:14:26.635Z,1.10
2023-01-19T03:17:01.902Z,1.10
2023-01-19T03:19:31.591Z,1.20
2023-01-19T03:25:28.028Z,1.20
2023-01-19T03:27:56.916Z,1.20
2023-01-19T03:30:32.228Z,1.20
2023-01-19T03:33:08.161Z,1.10
2023-01-19T03:35:36.743Z,1.10
2023-01-19T03:38:06.628Z,1.10
2023-01-19T03:40:33.354Z,1.00
2023-01-19T03:43:01.363Z,1.00
2023-01-19T03:45:28.188Z,1.00
2023-01-19T03:47:55.027Z,1.00
2023-01-19T03:50:24.791Z,1.00
2023-01-19T03:53:11.717Z,1.00
2023-01-19T03:55:39.878Z,1.00
2023-01-19T03:58:06.507Z,1.00
2023-01-19T04:00:33.805Z,1.00
2023-01-19T04:03:00.885Z,1.00
2023-01-19T04:05:27.723Z,1.00
2023-01-19T04:07:54.938Z,1.00
2023-01-19T04:10:21.985Z,0.90
2023-01-19T04:12:48.952Z,1.00
2023-01-19T04:15:15.862Z,0.90
2023-01-19T04:17:42.463Z,1.00
2023-01-19T04:20:09.370Z,1.00
2023-01-19T04:22:35.992Z,0.90
2023-01-19T04:25:03.345Z,1.00
2023-01-19T04:27:29.964Z,1.10
2023-01-19T04:29:56.819Z,1.10
2023-01-19T04:32:23.519Z,1.00
2023-01-19T04:34:52.291Z,1.00
2023-01-19T04:37:18.959Z,1.10
2023-01-19T04:39:45.549Z,1.00
2023-01-19T04:42:12.186Z,1.00
2023-01-19T04:44:38.937Z,1.00
2023-01-19T04:47:05.748Z,1.00
2023-01-19T04:49:58.146Z,0.90
2023-01-19T04:52:25.622Z,0.90
2023-01-19T04:54:52.860Z,0.80
2023-01-19T04:57:19.500Z,0.80
2023-01-19T04:59:46.157Z,0.70
2023-01-19T05:02:12.850Z,0.70
2023-01-19T05:04:39.534Z,0.90
2023-01-19T05:07:06.116Z,0.80
2023-01-19T05:09:32.739Z,0.80
2023-01-19T05:12:14.739Z,0.80
2023-01-19T05:14:41.457Z,0.90
2023-01-19T05:17:08.084Z,0.60
2023-01-19T05:19:35.438Z,0.60
2023-01-19T05:22:03.370Z,0.50
2023-01-19T05:24:30.073Z,0.60
2023-01-19T05:26:56.771Z,0.50
2023-01-19T05:29:23.408Z,0.50
2023-01-19T05:31:50.082Z,0.50
2023-01-19T05:34:16.826Z,0.60
2023-01-19T05:36:43.455Z,0.50
2023-01-19T05:39:10.325Z,0.50
2023-01-19T05:41:36.967Z,0.50
2023-01-19T05:44:03.632Z,0.40
2023-01-19T05:46:30.307Z,0.30
2023-01-19T05:48:56.995Z,0.50
2023-01-19T05:51:23.704Z,0.40
2023-01-19T05:53:50.295Z,0.30
2023-01-19T05:56:16.951Z,0.40
2023-01-19T05:58:43.539Z,0.30
2023-01-19T06:01:10.628Z,0.40
2023-01-19T06:03:39.225Z,0.30
2023-01-19T06:06:05.945Z,0.30
2023-01-19T06:08:35.547Z,0.30
2023-01-19T06:11:05.056Z,0.30
2023-01-19T06:13:31.678Z,0.20
2023-01-19T06:16:01.832Z,0.20
2023-01-19T06:18:29.094Z,0.10
2023-01-19T06:20:58.798Z,0.10
2023-01-19T06:23:26.002Z,0.10
2023-01-19T06:25:52.735Z,0.10
2023-01-19T06:28:19.415Z,0.20
2023-01-19T06:30:48.668Z,0.10
2023-01-19T06:33:15.609Z,0.10
2023-01-19T06:35:46.619Z,0.10
2023-01-19T06:38:13.651Z,0.10
2023-01-19T06:40:40.774Z,0.10
2023-01-19T06:43:08.006Z,0.20
2023-01-19T06:45:34.943Z,0.20
2023-01-19T06:48:02.833Z,0.20
2023-01-19T06:50:33.450Z,0.20
2023-01-19T06:53:00.420Z,0.20
2023-01-19T06:55:27.699Z,0.20
2023-01-19T06:57:58.579Z,0.20
2023-01-19T07:00:25.775Z,0.20
2023-01-19T07:02:52.732Z,0.20
2023-01-19T07:05:19.391Z,0.20
2023-01-19T07:07:51.961Z,0.20
2023-01-19T07:10:18.668Z,0.20
2023-01-19T07:12:47.292Z,0.20
2023-01-19T07:15:15.448Z,0.30
2023-01-19T07:17:42.270Z,0.30
2023-01-19T07:20:14.243Z,0.30
2023-01-19T07:22:41.520Z,0.30
2023-01-19T07:25:08.376Z,0.30
2023-01-19T07:27:34.993Z,0.40
2023-01-19T07:30:01.648Z,0.40
2023-01-19T07:32:29.025Z,0.40
2023-01-19T07:34:55.701Z,0.40
2023-01-19T07:37:22.413Z,0.40
2023-01-19T07:39:49.093Z,0.50
2023-01-19T07:42:15.812Z,0.40
2023-01-19T07:44:42.455Z,0.40
2023-01-19T07:47:12.494Z,0.50
2023-01-19T07:49:39.345Z,0.50
2023-01-19T07:52:06.032Z,0.50
2023-01-19T07:54:32.821Z,0.50
2023-01-19T07:57:00.790Z,0.60
2023-01-19T07:59:28.058Z,0.60
2023-01-19T08:01:54.806Z,0.60
2023-01-19T08:04:21.721Z,0.60
2023-01-19T08:06:48.611Z,0.70
2023-01-19T08:09:15.194Z,0.70
2023-01-19T08:11:41.846Z,0.80
2023-01-19T08:14:08.985Z,0.90
2023-01-19T08:16:36.099Z,1.00
2023-01-19T08:19:03.776Z,1.10
2023-01-19T08:21:30.477Z,1.10
2023-01-19T08:23:57.852Z,1.20
2023-01-19T08:26:27.270Z,1.20
2023-01-19T08:28:54.144Z,1.10
2023-01-19T08:31:24.473Z,1.10
2023-01-19T08:33:51.641Z,1.10
2023-01-19T08:36:18.611Z,1.10
2023-01-19T08:38:45.752Z,1.20
2023-01-19T08:41:12.534Z,1.20
2023-01-19T08:43:39.209Z,1.30
2023-01-19T08:46:06.105Z,1.40
2023-01-19T08:48:32.795Z,1.30
2023-01-19T08:51:02.674Z,1.40
2023-01-19T08:53:29.397Z,1.50
2023-01-19T08:56:02.543Z,1.50
2023-01-19T08:58:29.480Z,1.50
2023-01-19T09:00:56.206Z,1.50
2023-01-19T09:03:23.042Z,1.50
2023-01-19T09:05:50.449Z,1.50
2023-01-19T09:08:17.289Z,1.60
2023-01-19T09:10:45.352Z,1.70
2023-01-19T09:13:12.951Z,1.70
2023-01-19T09:15:39.763Z,1.60
2023-01-19T09:18:07.336Z,1.50
2023-01-19T09:20:36.084Z,1.50
2023-01-19T09:23:03.053Z,1.40
2023-01-19T09:25:29.836Z,1.40
2023-01-19T09:27:56.539Z,1.40
2023-01-19T09:30:23.206Z,1.50
2023-01-19T09:32:49.913Z,1.50
2023-01-19T09:35:16.628Z,1.50
2023-01-19T09:37:47.272Z,1.40
2023-01-19T09:40:15.297Z,1.40
2023-01-19T09:43:13.228Z,1.50
2023-01-19T09:45:46.155Z,1.50
2023-01-19T09:48:19.017Z,1.60
2023-01-19T09:50:47.453Z,1.60
2023-01-19T09:53:17.046Z,1.60
2023-01-19T09:55:43.865Z,1.60
2023-01-19T09:58:13.694Z,1.60
2023-01-19T10:00:42.632Z,1.60
2023-01-19T10:03:16.307Z,1.70
2023-01-19T10:05:46.028Z,1.80
2023-01-19T10:08:18.275Z,1.80
2023-01-19T10:10:55.098Z,1.70
2023-01-19T10:13:24.720Z,1.60
2023-01-19T10:15:54.767Z,1.60
2023-01-19T10:18:35.761Z,1.70
2023-01-19T10:21:05.538Z,1.80
2023-01-19T10:23:45.595Z,1.90
2023-01-19T10:26:23.066Z,2.00
2023-01-19T10:28:51.336Z,2.00
2023-01-19T10:31:20.702Z,2.10
2023-01-19T10:33:48.300Z,2.10
2023-01-19T10:36:25.773Z,2.10
2023-01-19T10:38:52.502Z,2.10
2023-01-19T10:41:23.414Z,2.10
2023-01-19T10:43:58.231Z,2.10
2023-01-19T10:46:43.441Z,2.10
2023-01-19T10:49:23.173Z,2.20
2023-01-19T10:51:49.807Z,2.20
2023-01-19T10:54:19.881Z,2.30
2023-01-19T10:56:51.282Z,2.40
2023-01-19T10:59:34.732Z,2.40
2023-01-19T11:02:06.853Z,2.30
2023-01-19T11:04:33.622Z,2.30
2023-01-19T11:07:14.209Z,2.30
2023-01-19T11:09:40.904Z,2.30
2023-01-19T11:12:15.151Z,2.30
2023-01-19T11:14:41.812Z,2.30
2023-01-19T11:17:14.631Z,2.30
2023-01-19T11:19:41.474Z,2.30
2023-01-19T11:22:10.605Z,2.30
2023-01-19T11:24:38.311Z,2.30
2023-01-19T11:27:05.040Z,2.20
2023-01-19T11:29:32.017Z,2.20
2023-01-19T11:32:10.799Z,2.20
2023-01-19T11:34:38.798Z,2.30
2023-01-19T11:37:05.411Z,2.30
2023-01-19T11:39:44.764Z,2.30
2023-01-19T11:42:13.052Z,2.30
2023-01-19T11:44:44.300Z,2.30
2023-01-19T11:47:18.941Z,2.30
2023-01-19T11:49:49.521Z,2.30
2023-01-19T11:52:16.151Z,2.30
2023-01-19T11:54:49.268Z,2.40
2023-01-19T11:57:17.163Z,2.40
2023-01-19T11:59:44.547Z,2.40
2023-01-19T12:02:16.587Z,2.40
2023-01-19T12:04:44.507Z,2.40
2023-01-19T12:07:12.691Z,2.40
2023-01-19T12:09:42.778Z,2.50
2023-01-19T12:12:15.261Z,2.50
2023-01-19T12:14:47.537Z,2.60
2023-01-19T12:17:19.734Z,2.50
2023-01-19T12:19:54.991Z,2.50
2023-01-19T12:22:23.761Z,2.40
2023-01-19T12:24:54.602Z,2.40
2023-01-19T12:27:35.702Z,2.40
2023-01-19T12:30:03.120Z,2.40
2023-01-19T12:32:34.536Z,2.40
2023-01-19T12:35:01.293Z,2.40
2023-01-19T12:37:30.974Z,2.40
2023-01-19T12:39:59.096Z,2.30
2023-01-19T12:42:26.401Z,2.30
2023-01-19T12:45:05.431Z,2.30
2023-01-19T12:47:32.363Z,2.30
2023-01-19T12:50:06.655Z,2.20
2023-01-19T12:52:35.771Z,2.20
2023-01-19T12:55:02.420Z,2.20
2023-01-19T12:57:47.891Z,2.30
2023-01-19T13:00:23.672Z,2.40
2023-01-19T13:02:50.372Z,2.30
2023-01-19T13:05:17.100Z,2.20
2023-01-19T13:08:02.385Z,2.20
2023-01-19T13:10:47.843Z,2.10
2023-01-19T13:13:18.389Z,2.20
2023-01-19T13:15:45.159Z,2.10
2023-01-19T13:18:19.876Z,2.20
2023-01-19T13:21:05.831Z,2.10
2023-01-19T13:23:49.766Z,2.00
2023-01-19T13:26:17.594Z,1.90
2023-01-19T13:28:45.397Z,1.90
2023-01-19T13:31:13.217Z,1.90
2023-01-19T13:33:48.654Z,1.90
2023-01-19T13:36:20.606Z,1.90
2023-01-19T13:38:48.088Z,1.80
2023-01-19T13:41:16.444Z,1.90
2023-01-19T13:43:43.348Z,1.80
2023-01-19T13:46:11.456Z,1.80
2023-01-19T13:48:38.276Z,1.70
2023-01-19T13:51:06.232Z,1.80
2023-01-19T13:53:35.189Z,1.70
2023-01-19T13:56:14.196Z,1.70
2023-01-19T13:58:40.941Z,1.70
2023-01-19T14:01:19.823Z,1.60
2023-01-19T14:03:52.170Z,1.60
2023-01-19T14:06:31.102Z,1.50
2023-01-19T14:09:16.658Z,1.60
2023-01-19T14:11:47.756Z,1.60
2023-01-19T14:14:24.591Z,1.60
2023-01-19T14:16:51.363Z,1.50
2023-01-19T14:19:18.176Z,1.50
2023-01-19T14:21:46.083Z,1.50
2023-01-19T14:24:19.876Z,1.40
2023-01-19T14:26:51.395Z,1.40
2023-01-19T14:29:24.440Z,1.40
2023-01-19T14:32:11.430Z,1.30
2023-01-19T14:34:42.491Z,1.30
2023-01-19T14:37:25.953Z,1.30
2023-01-19T14:39:52.593Z,1.20
2023-01-19T14:42:27.555Z,1.20
2023-01-19T14:45:21.041Z,1.20
2023-01-19T14:47:54.473Z,1.10
2023-01-19T14:50:23.438Z,1.00
2023-01-19T14:52:52.884Z,1.00
2023-01-19T14:55:21.290Z,1.00
2023-01-19T14:57:48.056Z,1.00
2023-01-19T15:00:17.681Z,0.90
2023-01-19T15:02:45.002Z,0.90
2023-01-19T15:05:11.759Z,0.90
2023-01-19T15:07:39.531Z,0.80
2023-01-19T15:10:11.313Z,0.80
2023-01-19T15:12:37.881Z,0.80
2023-01-19T15:15:04.671Z,0.70
2023-01-19T15:17:31.357Z,0.70
2023-01-19T15:19:57.993Z,0.70
2023-01-19T15:22:26.754Z,0.60
2023-01-19T15:24:57.567Z,0.50
2023-01-19T15:27:41.695Z,0.50
2023-01-19T15:30:22.857Z,0.50
2023-01-19T15:32:49.556Z,0.40
2023-01-19T15:35:17.828Z,0.30
2023-01-19T15:37:44.858Z,0.20
2023-01-19T15:40:11.927Z,0.20
2023-01-19T15:42:38.864Z,0.20
2023-01-19T15:45:11.606Z,0.00
2023-01-19T15:54:27.221Z,-0.30
2023-01-19T15:56:54.004Z,-0.30
2023-01-19T15:59:20.621Z,-0.30
2023-01-19T16:01:47.454Z,-0.30
2023-01-19T16:04:15.985Z,-0.30
2023-01-19T16:06:43.752Z,-0.30
2023-01-19T16:09:13.935Z,-0.20
2023-01-19T16:11:41.626Z,-0.30
2023-01-19T16:14:08.242Z,-0.30
2023-01-19T16:16:35.020Z,-0.30
2023-01-19T16:19:02.081Z,-0.30
2023-01-19T16:21:28.941Z,-0.30
2023-01-19T16:23:55.728Z,-0.30
2023-01-19T16:26:26.121Z,-0.30
2023-01-19T16:28:55.358Z,-0.40
2023-01-19T16:31:22.068Z,-0.30
2023-01-19T16:33:49.891Z,-0.40
2023-01-19T16:36:19.517Z,-0.40
2023-01-19T16:38:46.236Z,-0.40
2023-01-19T16:41:15.017Z,-0.30
2023-01-19T16:43:41.673Z,-0.30
2023-01-19T16:46:16.857Z,-0.30
2023-01-19T16:48:43.472Z,-0.30
2023-01-19T16:51:18.285Z,-0.20
2023-01-19T16:53:45.411Z,-0.20
2023-01-19T16:56:14.236Z,-0.20
2023-01-19T16:58:41.692Z,-0.20
2023-01-19T17:01:09.708Z,-0.30
2023-01-19T17:03:38.065Z,-0.30
2023-01-19T17:06:24.031Z,-0.30
2023-01-19T17:08:51.335Z,-0.30
2023-01-19T17:11:22.460Z,-0.40
2023-01-19T17:14:03.091Z,-0.30
2023-01-19T17:16:30.914Z,-0.40
2023-01-19T17:18:58.581Z,-0.40
2023-01-19T17:21:25.413Z,-0.40
2023-01-19T17:23:53.826Z,-0.40
2023-01-19T17:26:20.974Z,-0.50
2023-01-19T17:28:47.999Z,-0.60
2023-01-19T17:31:16.060Z,-0.60
2023-01-19T17:33:47.288Z,-0.60
2023-01-19T17:36:16.647Z,-0.60
2023-01-19T17:38:43.290Z,-0.70
2023-01-19T17:41:14.011Z,-0.70
2023-01-19T17:43:40.719Z,-0.70
2023-01-19T17:46:07.497Z,-0.70
2023-01-19T17:48:34.235Z,-0.70
2023-01-19T17:51:05.784Z,-0.80
2023-01-19T17:53:35.257Z,-0.80
2023-01-19T17:56:08.155Z,-0.80
2023-01-19T17:58:34.980Z,-0.80
2023-01-19T18:01:40.604Z,-0.80
2023-01-19T18:04:07.922Z,-0.80
2023-01-19T18:06:34.783Z,-0.80
2023-01-19T18:09:01.786Z,-0.90
2023-01-19T18:11:28.465Z,-0.90
2023-01-19T18:13:55.195Z,-0.90
2023-01-19T18:16:23.662Z,-1.00
2023-01-19T18:18:51.119Z,-1.00
2023-01-19T18:21:20.295Z,-1.00
2023-01-19T18:23:47.393Z,-1.00
2023-01-19T18:26:18.242Z,-1.10
2023-01-19T18:28:46.606Z,-1.00
2023-01-19T18:31:14.699Z,-1.00
2023-01-19T18:33:41.520Z,-1.00
2023-01-19T18:36:09.008Z,-1.00
2023-01-19T18:38:35.753Z,-1.00
2023-01-19T18:41:10.587Z,-1.00
2023-01-19T18:43:38.644Z,-1.00
2023-01-19T18:46:05.452Z,-0.90
2023-01-19T18:48:32.162Z,-0.90
2023-01-19T18:51:03.457Z,-0.90
2023-01-19T18:53:31.249Z,-0.80
2023-01-19T18:55:58.878Z,-0.80
2023-01-19T18:58:28.543Z,-0.80
2023-01-19T19:00:55.837Z,-0.80
2023-01-19T19:03:23.229Z,-0.80
2023-01-19T19:05:50.107Z,-0.90
2023-01-19T19:08:16.819Z,-0.90
2023-01-19T19:10:43.734Z,-0.90
2023-01-19T19:13:13.633Z,-1.00
2023-01-19T19:15:40.308Z,-1.10
2023-01-19T19:18:08.932Z,-1.10
2023-01-19T19:20:39.011Z,-1.10
2023-01-19T19:23:05.748Z,-1.10
2023-01-19T19:25:33.005Z,-1.20
2023-01-19T19:27:59.660Z,-1.20
2023-01-19T19:30:26.438Z,-1.30
2023-01-19T19:32:54.069Z,-1.40
2023-01-19T19:35:21.245Z,-1.40
2023-01-19T19:37:48.542Z,-1.50
2023-01-19T19:40:15.756Z,-1.70
2023-01-19T19:42:42.471Z,-1.80
2023-01-19T19:45:09.515Z,-1.80
2023-01-19T19:47:36.203Z,-1.80
2023-01-19T19:50:02.799Z,-1.80
2023-01-19T19:52:29.475Z,-1.90
2023-01-19T19:54:56.183Z,-1.90
2023-01-19T19:57:22.955Z,-1.90
2023-01-19T19:59:49.596Z,-1.90
2023-01-19T20:02:16.358Z,-1.90
2023-01-19T20:04:44.239Z,-2.00
2023-01-19T20:07:11.059Z,-2.00
2023-01-19T20:09:40.129Z,-2.10
2023-01-19T20:12:06.977Z,-2.10
2023-01-19T20:14:33.637Z,-2.10
2023-01-19T20:17:00.662Z,-2.20
2023-01-19T20:19:36.384Z,-2.20
2023-01-19T20:22:08.740Z,-2.20
2023-01-19T20:24:38.582Z,-2.20
2023-01-19T20:27:05.210Z,-2.20
2023-01-19T20:29:31.964Z,-2.20
2023-01-19T20:32:47.690Z,-2.30
2023-01-19T20:34:48.477Z,-2.30
2023-01-19T20:37:15.214Z,-2.40
2023-01-19T20:39:49.622Z,-2.40
2023-01-19T20:42:16.539Z,-2.50
2023-01-19T20:44:43.415Z,-2.70
2023-01-19T20:47:13.551Z,-2.70
2023-01-19T20:51:17.071Z,-2.70
2023-01-19T20:52:29.269Z,-2.70
2023-01-19T20:54:59.967Z,-2.70
2023-01-19T20:57:26.660Z,-2.70
2023-01-19T20:59:53.272Z,-2.70
2023-01-19T21:02:20.468Z,-2.70
2023-01-19T21:04:47.131Z,-2.70
2023-01-19T21:07:13.726Z,-2.70
2023-01-19T21:09:40.501Z,-2.80
2023-01-19T21:12:09.616Z,-2.90
2023-01-19T21:14:36.576Z,-2.90
2023-01-19T21:17:03.315Z,-2.90
2023-01-19T21:19:30.123Z,-2.90
2023-01-19T21:21:59.388Z,-3.00
2023-01-19T21:24:26.142Z,-3.00
2023-01-19T21:26:56.058Z,-3.00
2023-01-19T21:29:37.121Z,-3.00
2023-01-19T21:32:05.803Z,-3.00
2023-01-19T21:34:32.490Z,-3.00
2023-01-19T21:36:59.139Z,-3.00
2023-01-19T21:39:25.831Z,-3.10
2023-01-19T21:41:53.730Z,-3.10
2023-01-19T21:44:20.375Z,-3.10
2023-01-19T21:46:47.084Z,-3.10
2023-01-19T21:49:17.267Z,-3.10
2023-01-19T21:51:43.980Z,-3.10
2023-01-19T21:54:10.778Z,-3.10
2023-01-19T21:56:38.035Z,-3.10
2023-01-19T21:59:08.271Z,-3.20
2023-01-19T22:01:35.210Z,-3.20
2023-01-19T22:04:01.995Z,-3.20
2023-01-19T22:06:28.671Z,-3.10
2023-01-19T22:08:55.509Z,-3.10
2023-01-19T22:11:22.202Z,-3.10
2023-01-19T22:13:48.907Z,-3.00
2023-01-19T22:16:16.784Z,-3.00
2023-01-19T22:18:44.547Z,-2.90
2023-01-19T22:21:15.655Z,-2.90
2023-01-19T22:23:42.909Z,-3.00
2023-01-19T22:26:10.926Z,-3.10
2023-01-19T22:28:37.811Z,-3.10
2023-01-19T22:31:04.670Z,-3.10
2023-01-19T22:33:38.660Z,-3.20
2023-01-19T22:36:16.062Z,-3.10
2023-01-19T22:38:43.948Z,-3.00
2023-01-19T22:41:11.420Z,-3.00
2023-01-19T22:43:38.222Z,-2.90
2023-01-19T22:46:07.252Z,-2.90
2023-01-19T22:48:35.438Z,-3.00
2023-01-19T22:51:02.143Z,-3.10
2023-01-19T22:53:30.338Z,-3.10
2023-01-19T22:55:57.024Z,-3.10
2023-01-19T22:58:23.711Z,-3.20
2023-01-19T23:00:50.375Z,-3.20
2023-01-19T23:03:17.091Z,-3.10
2023-01-19T23:05:43.789Z,-3.10
2023-01-19T23:08:10.419Z,-3.10
2023-01-19T23:10:38.392Z,-3.10
2023-01-19T23:13:06.219Z,-3.10
2023-01-19T23:15:34.088Z,-3.10
2023-01-19T23:18:06.186Z,-3.10
2023-01-19T23:20:32.846Z,-3.10
2023-01-19T23:22:59.590Z,-3.20
2023-01-19T23:25:26.222Z,-3.20
2023-01-19T23:27:52.875Z,-3.20
2023-01-19T23:30:20.750Z,-3.20
2023-01-19T23:32:48.182Z,-3.20
2023-01-19T23:35:15.258Z,-3.30
2023-01-19T23:37:42.065Z,-3.30
2023-01-19T23:40:10.067Z,-3.30
2023-01-19T23:42:36.832Z,-3.30
2023-01-19T23:45:03.633Z,-3.30
2023-01-19T23:47:30.281Z,-3.30
2023-01-19T23:49:56.953Z,-3.30
2023-01-19T23:52:23.587Z,-3.30
2023-01-19T23:54:50.844Z,-3.30
2023-01-19T23:57:17.468Z,-3.30
2023-01-19T23:59:44.472Z,-3.40
